De Queen, Arkansas
Current Conditions -  °F | °C
As of 3:53 AM on Monday 26 Jan 2015 (Local Time) from KDEQ Reporting Station
Clear Clear  
Wind Chill:   Ceiling: Unl
Heat Index:   Visibility: 10mi
Dew Point: -2°   Wind: 3mph
Humidity: 85%   Direction: 250°WSW
Pressure: 30.13"   Gusts: NA
Location:  34.04°N, 94.34°W
Report Text: KDEQ 260953Z AUTO 25003KT 10SM CLR 01/M02 A3013 RMK AO2 SLP201 T00061017
Loading
Personal Weather Stations






























Interactive Weather Map New forecast layout! Learn more

10-Day Weather Forecast

Advertisements
Track Severe Weather on mobile